sensor_id;sensor_type;location;lat;lon;timestamp;P1;durP1;ratioP1;P2;durP2;ratioP2
56943;SDS011;42848;42.524;12.052;2023-03-01T00:02:21;6.32;;;3.22;;
56943;SDS011;42848;42.524;12.052;2023-03-01T00:04:47;5.78;;;3.28;;
56943;SDS011;42848;42.524;12.052;2023-03-01T00:07:13;6.03;;;3.47;;
56943;SDS011;42848;42.524;12.052;2023-03-01T00:09:39;5.35;;;3.42;;
56943;SDS011;42848;42.524;12.052;2023-03-01T00:12:05;6.10;;;3.70;;
56943;SDS011;42848;42.524;12.052;2023-03-01T00:14:31;5.68;;;3.17;;
56943;SDS011;42848;42.524;12.052;2023-03-01T00:16:57;6.32;;;3.72;;
56943;SDS011;42848;42.524;12.052;2023-03-01T00:19:23;6.68;;;3.75;;
56943;SDS011;42848;42.524;12.052;2023-03-01T00:21:49;6.95;;;3.63;;
56943;SDS011;42848;42.524;12.052;2023-03-01T00:24:15;6.88;;;3.85;;
56943;SDS011;42848;42.524;12.052;2023-03-01T00:26:42;6.18;;;3.63;;
56943;SDS011;42848;42.524;12.052;2023-03-01T00:29:07;5.78;;;3.25;;
56943;SDS011;42848;42.524;12.052;2023-03-01T00:31:33;6.43;;;3.67;;
56943;SDS011;42848;42.524;12.052;2023-03-01T00:34:01;6.07;;;3.70;;
56943;SDS011;42848;42.524;12.052;2023-03-01T00:36:32;6.20;;;3.78;;
56943;SDS011;42848;42.524;12.052;2023-03-01T00:39:00;6.53;;;3.92;;
56943;SDS011;42848;42.524;12.052;2023-03-01T00:41:28;7.57;;;3.70;;
56943;SDS011;42848;42.524;12.052;2023-03-01T00:43:53;6.88;;;3.45;;
56943;SDS011;42848;42.524;12.052;2023-03-01T00:46:21;6.82;;;3.80;;
56943;SDS011;42848;42.524;12.052;2023-03-01T00:48:49;6.45;;;3.88;;
56943;SDS011;42848;42.524;12.052;2023-03-01T00:51:16;6.03;;;3.78;;
56943;SDS011;42848;42.524;12.052;2023-03-01T00:53:47;6.13;;;3.40;;
56943;SDS011;42848;42.524;12.052;2023-03-01T00:56:16;6.03;;;3.30;;
56943;SDS011;42848;42.524;12.052;2023-03-01T00:58:41;5.85;;;3.58;;
56943;SDS011;42848;42.524;12.052;2023-03-01T01:01:11;6.57;;;3.75;;
56943;SDS011;42848;42.524;12.052;2023-03-01T01:03:45;5.75;;;3.58;;
56943;SDS011;42848;42.524;12.052;2023-03-01T01:06:19;5.15;;;3.38;;
56943;SDS011;42848;42.524;12.052;2023-03-01T01:08:47;7.05;;;3.90;;
56943;SDS011;42848;42.524;12.052;2023-03-01T01:11:13;6.60;;;3.80;;
56943;SDS011;42848;42.524;12.052;2023-03-01T01:13:40;6.93;;;3.78;;
56943;SDS011;42848;42.524;12.052;2023-03-01T01:16:08;6.25;;;3.78;;
56943;SDS011;42848;42.524;12.052;2023-03-01T01:18:34;6.70;;;3.72;;
56943;SDS011;42848;42.524;12.052;2023-03-01T01:21:05;7.03;;;3.83;;
56943;SDS011;42848;42.524;12.052;2023-03-01T01:23:32;6.38;;;3.90;;
56943;SDS011;42848;42.524;12.052;2023-03-01T01:26:02;7.03;;;3.78;;
56943;SDS011;42848;42.524;12.052;2023-03-01T01:28:33;7.63;;;4.13;;
56943;SDS011;42848;42.524;12.052;2023-03-01T01:30:59;7.22;;;3.83;;
56943;SDS011;42848;42.524;12.052;2023-03-01T01:33:25;6.85;;;4.10;;
56943;SDS011;42848;42.524;12.052;2023-03-01T01:35:51;6.65;;;4.13;;
56943;SDS011;42848;42.524;12.052;2023-03-01T01:38:17;7.30;;;4.15;;
56943;SDS011;42848;42.524;12.052;2023-03-01T01:40:46;7.30;;;4.30;;
56943;SDS011;42848;42.524;12.052;2023-03-01T01:43:20;8.00;;;4.53;;
56943;SDS011;42848;42.524;12.052;2023-03-01T01:45:48;6.68;;;3.97;;
56943;SDS011;42848;42.524;12.052;2023-03-01T01:48:20;6.90;;;3.97;;
56943;SDS011;42848;42.524;12.052;2023-03-01T01:50:51;6.32;;;3.90;;
56943;SDS011;42848;42.524;12.052;2023-03-01T01:53:23;6.82;;;3.50;;
56943;SDS011;42848;42.524;12.052;2023-03-01T01:55:52;7.82;;;3.80;;
56943;SDS011;42848;42.524;12.052;2023-03-01T01:58:22;5.63;;;3.40;;
56943;SDS011;42848;42.524;12.052;2023-03-01T02:00:50;6.20;;;3.80;;
56943;SDS011;42848;42.524;12.052;2023-03-01T02:03:26;6.65;;;3.92;;
56943;SDS011;42848;42.524;12.052;2023-03-01T02:08:32;5.03;;;2.83;;
56943;SDS011;42848;42.524;12.052;2023-03-01T02:11:02;5.90;;;3.33;;
56943;SDS011;42848;42.524;12.052;2023-03-01T02:13:32;5.63;;;3.08;;
56943;SDS011;42848;42.524;12.052;2023-03-01T02:15:59;4.68;;;2.78;;
56943;SDS011;42848;42.524;12.052;2023-03-01T02:18:27;5.47;;;2.95;;
56943;SDS011;42848;42.524;12.052;2023-03-01T02:23:42;4.55;;;2.65;;
56943;SDS011;42848;42.524;12.052;2023-03-01T02:26:25;4.00;;;2.58;;
56943;SDS011;42848;42.524;12.052;2023-03-01T02:29:05;4.47;;;2.75;;
56943;SDS011;42848;42.524;12.052;2023-03-01T02:31:31;4.88;;;2.78;;
56943;SDS011;42848;42.524;12.052;2023-03-01T02:34:07;4.78;;;2.70;;
56943;SDS011;42848;42.524;12.052;2023-03-01T02:37:18;5.47;;;2.70;;
56943;SDS011;42848;42.524;12.052;2023-03-01T02:39:44;4.50;;;2.67;;
56943;SDS011;42848;42.524;12.052;2023-03-01T02:42:14;4.15;;;2.72;;
56943;SDS011;42848;42.524;12.052;2023-03-01T02:44:46;4.90;;;2.85;;
56943;SDS011;42848;42.524;12.052;2023-03-01T02:47:13;4.88;;;2.80;;
56943;SDS011;42848;42.524;12.052;2023-03-01T02:49:39;4.40;;;2.70;;
56943;SDS011;42848;42.524;12.052;2023-03-01T02:57:07;6.05;;;2.70;;
56943;SDS011;42848;42.524;12.052;2023-03-01T02:59:34;5.65;;;2.67;;
56943;SDS011;42848;42.524;12.052;2023-03-01T03:02:08;4.43;;;2.53;;
56943;SDS011;42848;42.524;12.052;2023-03-01T03:05:09;5.20;;;2.80;;
56943;SDS011;42848;42.524;12.052;2023-03-01T03:07:39;6.40;;;2.20;;
56943;SDS011;42848;42.524;12.052;2023-03-01T03:10:09;5.78;;;2.50;;
56943;SDS011;42848;42.524;12.052;2023-03-01T03:12:38;4.30;;;2.30;;
56943;SDS011;42848;42.524;12.052;2023-03-01T03:15:05;3.65;;;2.15;;
56943;SDS011;42848;42.524;12.052;2023-03-01T03:17:37;3.28;;;2.10;;
56943;SDS011;42848;42.524;12.052;2023-03-01T03:20:04;3.95;;;2.08;;
56943;SDS011;42848;42.524;12.052;2023-03-01T03:22:35;3.83;;;2.03;;
56943;SDS011;42848;42.524;12.052;2023-03-01T03:25:02;3.47;;;2.05;;
56943;SDS011;42848;42.524;12.052;2023-03-01T03:27:28;3.40;;;2.00;;
56943;SDS011;42848;42.524;12.052;2023-03-01T03:29:53;4.20;;;2.30;;
56943;SDS011;42848;42.524;12.052;2023-03-01T03:32:19;3.63;;;2.20;;
56943;SDS011;42848;42.524;12.052;2023-03-01T03:34:44;3.95;;;2.10;;
56943;SDS011;42848;42.524;12.052;2023-03-01T03:37:10;3.88;;;2.20;;
56943;SDS011;42848;42.524;12.052;2023-03-01T03:39:55;3.95;;;2.00;;
56943;SDS011;42848;42.524;12.052;2023-03-01T03:42:21;4.55;;;2.10;;
56943;SDS011;42848;42.524;12.052;2023-03-01T03:44:47;3.55;;;2.22;;
56943;SDS011;42848;42.524;12.052;2023-03-01T03:47:13;4.43;;;2.35;;
56943;SDS011;42848;42.524;12.052;2023-03-01T03:49:39;4.53;;;2.30;;
56943;SDS011;42848;42.524;12.052;2023-03-01T03:52:04;4.10;;;1.80;;
56943;SDS011;42848;42.524;12.052;2023-03-01T03:54:39;3.83;;;2.20;;
56943;SDS011;42848;42.524;12.052;2023-03-01T03:57:06;3.40;;;1.80;;
56943;SDS011;42848;42.524;12.052;2023-03-01T03:59:32;2.67;;;1.40;;
56943;SDS011;42848;42.524;12.052;2023-03-01T04:01:57;3.15;;;1.63;;
56943;SDS011;42848;42.524;12.052;2023-03-01T04:04:23;3.25;;;1.75;;
56943;SDS011;42848;42.524;12.052;2023-03-01T04:06:49;3.70;;;1.73;;
56943;SDS011;42848;42.524;12.052;2023-03-01T04:09:14;3.13;;;1.55;;
56943;SDS011;42848;42.524;12.052;2023-03-01T04:11:40;3.22;;;1.23;;
56943;SDS011;42848;42.524;12.052;2023-03-01T04:14:05;2.63;;;1.40;;
56943;SDS011;42848;42.524;12.052;2023-03-01T04:16:31;3.55;;;1.50;;
56943;SDS011;42848;42.524;12.052;2023-03-01T04:18:57;2.65;;;1.33;;
56943;SDS011;42848;42.524;12.052;2023-03-01T04:21:24;2.92;;;1.55;;
56943;SDS011;42848;42.524;12.052;2023-03-01T04:23:50;2.60;;;1.45;;
56943;SDS011;42848;42.524;12.052;2023-03-01T04:26:18;3.17;;;1.48;;
56943;SDS011;42848;42.524;12.052;2023-03-01T04:28:45;3.08;;;1.45;;
56943;SDS011;42848;42.524;12.052;2023-03-01T04:31:14;2.50;;;1.23;;
56943;SDS011;42848;42.524;12.052;2023-03-01T04:33:50;2.33;;;1.20;;
56943;SDS011;42848;42.524;12.052;2023-03-01T04:36:17;2.20;;;1.35;;
56943;SDS011;42848;42.524;12.052;2023-03-01T04:38:46;1.92;;;1.10;;
56943;SDS011;42848;42.524;12.052;2023-03-01T04:41:18;2.53;;;1.50;;
56943;SDS011;42848;42.524;12.052;2023-03-01T04:43:45;2.70;;;1.40;;
56943;SDS011;42848;42.524;12.052;2023-03-01T04:46:12;2.67;;;1.38;;
56943;SDS011;42848;42.524;12.052;2023-03-01T04:48:42;2.10;;;1.20;;
56943;SDS011;42848;42.524;12.052;2023-03-01T04:51:10;2.25;;;1.20;;
56943;SDS011;42848;42.524;12.052;2023-03-01T04:53:39;1.90;;;1.08;;
56943;SDS011;42848;42.524;12.052;2023-03-01T04:56:05;2.00;;;1.00;;
56943;SDS011;42848;42.524;12.052;2023-03-01T04:58:31;1.90;;;1.00;;
56943;SDS011;42848;42.524;12.052;2023-03-01T05:00:57;1.80;;;1.00;;
56943;SDS011;42848;42.524;12.052;2023-03-01T05:03:23;2.95;;;1.10;;
56943;SDS011;42848;42.524;12.052;2023-03-01T05:05:49;1.98;;;0.90;;
56943;SDS011;42848;42.524;12.052;2023-03-01T05:08:17;2.00;;;1.00;;
56943;SDS011;42848;42.524;12.052;2023-03-01T05:10:48;2.20;;;1.20;;
56943;SDS011;42848;42.524;12.052;2023-03-01T05:13:16;2.50;;;1.20;;
56943;SDS011;42848;42.524;12.052;2023-03-01T05:15:46;2.08;;;1.13;;
56943;SDS011;42848;42.524;12.052;2023-03-01T05:18:14;2.50;;;1.00;;
56943;SDS011;42848;42.524;12.052;2023-03-01T05:20:40;3.38;;;1.10;;
56943;SDS011;42848;42.524;12.052;2023-03-01T05:23:06;1.23;;;0.70;;
56943;SDS011;42848;42.524;12.052;2023-03-01T05:25:32;1.77;;;0.60;;
56943;SDS011;42848;42.524;12.052;2023-03-01T05:28:00;1.50;;;0.70;;
56943;SDS011;42848;42.524;12.052;2023-03-01T05:30:30;1.40;;;0.80;;
56943;SDS011;42848;42.524;12.052;2023-03-01T05:32:57;1.20;;;0.68;;
56943;SDS011;42848;42.524;12.052;2023-03-01T05:35:23;1.98;;;1.17;;
56943;SDS011;42848;42.524;12.052;2023-03-01T05:37:49;2.03;;;0.93;;
56943;SDS011;42848;42.524;12.052;2023-03-01T05:40:17;1.83;;;1.08;;
56943;SDS011;42848;42.524;12.052;2023-03-01T05:42:46;1.92;;;0.77;;
56943;SDS011;42848;42.524;12.052;2023-03-01T05:45:14;1.70;;;0.90;;
56943;SDS011;42848;42.524;12.052;2023-03-01T05:47:42;1.83;;;0.80;;
56943;SDS011;42848;42.524;12.052;2023-03-01T05:52:46;1.60;;;0.95;;
56943;SDS011;42848;42.524;12.052;2023-03-01T05:55:17;1.77;;;0.90;;
56943;SDS011;42848;42.524;12.052;2023-03-01T05:57:45;1.95;;;0.98;;
56943;SDS011;42848;42.524;12.052;2023-03-01T06:00:12;1.58;;;0.98;;
56943;SDS011;42848;42.524;12.052;2023-03-01T06:02:39;2.20;;;0.95;;
56943;SDS011;42848;42.524;12.052;2023-03-01T06:05:06;2.10;;;1.08;;
56943;SDS011;42848;42.524;12.052;2023-03-01T06:07:33;1.45;;;0.80;;
56943;SDS011;42848;42.524;12.052;2023-03-01T06:10:00;1.60;;;1.00;;
56943;SDS011;42848;42.524;12.052;2023-03-01T06:12:29;1.83;;;1.00;;
56943;SDS011;42848;42.524;12.052;2023-03-01T06:14:56;1.52;;;0.93;;
56943;SDS011;42848;42.524;12.052;2023-03-01T06:17:21;2.25;;;1.00;;
56943;SDS011;42848;42.524;12.052;2023-03-01T06:19:47;2.83;;;1.10;;
56943;SDS011;42848;42.524;12.052;2023-03-01T06:22:12;1.88;;;1.20;;
56943;SDS011;42848;42.524;12.052;2023-03-01T06:24:38;2.35;;;1.10;;
56943;SDS011;42848;42.524;12.052;2023-03-01T06:27:04;2.10;;;1.27;;
56943;SDS011;42848;42.524;12.052;2023-03-01T06:29:29;2.00;;;1.25;;
56943;SDS011;42848;42.524;12.052;2023-03-01T06:31:55;2.10;;;1.30;;
56943;SDS011;42848;42.524;12.052;2023-03-01T06:34:20;2.42;;;1.27;;
56943;SDS011;42848;42.524;12.052;2023-03-01T06:36:46;4.72;;;2.50;;
56943;SDS011;42848;42.524;12.052;2023-03-01T06:39:12;8.40;;;5.13;;
56943;SDS011;42848;42.524;12.052;2023-03-01T06:41:38;18.10;;;9.43;;
56943;SDS011;42848;42.524;12.052;2023-03-01T06:44:04;4.85;;;3.00;;
56943;SDS011;42848;42.524;12.052;2023-03-01T06:46:30;2.92;;;2.10;;
56943;SDS011;42848;42.524;12.052;2023-03-01T06:48:56;4.20;;;2.58;;
56943;SDS011;42848;42.524;12.052;2023-03-01T06:51:21;5.45;;;4.15;;
56943;SDS011;42848;42.524;12.052;2023-03-01T06:53:47;4.15;;;2.20;;
56943;SDS011;42848;42.524;12.052;2023-03-01T06:56:13;3.15;;;1.70;;
56943;SDS011;42848;42.524;12.052;2023-03-01T06:58:38;2.83;;;1.67;;
56943;SDS011;42848;42.524;12.052;2023-03-01T07:01:07;3.53;;;1.90;;
56943;SDS011;42848;42.524;12.052;2023-03-01T07:03:34;3.78;;;1.90;;
56943;SDS011;42848;42.524;12.052;2023-03-01T07:05:59;2.65;;;1.40;;
56943;SDS011;42848;42.524;12.052;2023-03-01T07:08:25;3.75;;;1.80;;
56943;SDS011;42848;42.524;12.052;2023-03-01T07:10:59;3.63;;;2.00;;
56943;SDS011;42848;42.524;12.052;2023-03-01T07:13:27;3.20;;;2.00;;
56943;SDS011;42848;42.524;12.052;2023-03-01T07:15:53;2.40;;;1.38;;
56943;SDS011;42848;42.524;12.052;2023-03-01T07:18:19;2.00;;;1.30;;
56943;SDS011;42848;42.524;12.052;2023-03-01T07:20:44;2.25;;;1.30;;
56943;SDS011;42848;42.524;12.052;2023-03-01T07:23:10;1.85;;;1.25;;
56943;SDS011;42848;42.524;12.052;2023-03-01T07:25:35;1.88;;;1.20;;
56943;SDS011;42848;42.524;12.052;2023-03-01T07:28:01;2.05;;;1.30;;
56943;SDS011;42848;42.524;12.052;2023-03-01T07:30:27;7.38;;;4.20;;
56943;SDS011;42848;42.524;12.052;2023-03-01T07:32:56;10.48;;;5.93;;
56943;SDS011;42848;42.524;12.052;2023-03-01T07:35:23;5.00;;;2.90;;
56943;SDS011;42848;42.524;12.052;2023-03-01T07:37:50;3.60;;;2.10;;
56943;SDS011;42848;42.524;12.052;2023-03-01T07:40:16;4.70;;;2.78;;
56943;SDS011;42848;42.524;12.052;2023-03-01T07:42:42;2.60;;;1.70;;
56943;SDS011;42848;42.524;12.052;2023-03-01T07:45:08;2.10;;;1.40;;
56943;SDS011;42848;42.524;12.052;2023-03-01T07:47:34;2.80;;;1.52;;
56943;SDS011;42848;42.524;12.052;2023-03-01T07:50:00;4.38;;;2.72;;
56943;SDS011;42848;42.524;12.052;2023-03-01T07:52:26;4.35;;;2.85;;
56943;SDS011;42848;42.524;12.052;2023-03-01T07:54:52;3.38;;;2.05;;
56943;SDS011;42848;42.524;12.052;2023-03-01T07:57:18;2.90;;;1.60;;
56943;SDS011;42848;42.524;12.052;2023-03-01T07:59:43;6.80;;;3.88;;
56943;SDS011;42848;42.524;12.052;2023-03-01T08:02:10;4.40;;;2.97;;
56943;SDS011;42848;42.524;12.052;2023-03-01T08:04:36;6.95;;;4.25;;
56943;SDS011;42848;42.524;12.052;2023-03-01T08:07:03;4.32;;;2.80;;
56943;SDS011;42848;42.524;12.052;2023-03-01T08:09:31;2.50;;;1.50;;
56943;SDS011;42848;42.524;12.052;2023-03-01T08:11:56;2.72;;;1.58;;
56943;SDS011;42848;42.524;12.052;2023-03-01T08:14:26;1.75;;;1.05;;
56943;SDS011;42848;42.524;12.052;2023-03-01T08:16:51;11.88;;;6.07;;
56943;SDS011;42848;42.524;12.052;2023-03-01T08:19:17;6.78;;;3.42;;
56943;SDS011;42848;42.524;12.052;2023-03-01T08:21:43;3.60;;;1.55;;
56943;SDS011;42848;42.524;12.052;2023-03-01T08:24:08;3.65;;;1.75;;
56943;SDS011;42848;42.524;12.052;2023-03-01T08:26:35;2.53;;;1.45;;
56943;SDS011;42848;42.524;12.052;2023-03-01T08:29:01;2.53;;;1.25;;
56943;SDS011;42848;42.524;12.052;2023-03-01T08:31:29;2.15;;;1.20;;
56943;SDS011;42848;42.524;12.052;2023-03-01T08:34:04;3.47;;;1.50;;
56943;SDS011;42848;42.524;12.052;2023-03-01T08:36:39;1.92;;;1.15;;
56943;SDS011;42848;42.524;12.052;2023-03-01T08:39:06;3.47;;;1.80;;
56943;SDS011;42848;42.524;12.052;2023-03-01T08:41:33;2.78;;;1.30;;
56943;SDS011;42848;42.524;12.052;2023-03-01T08:43:59;2.15;;;1.17;;
56943;SDS011;42848;42.524;12.052;2023-03-01T08:46:28;2.38;;;1.33;;
56943;SDS011;42848;42.524;12.052;2023-03-01T08:48:56;2.08;;;1.48;;
56943;SDS011;42848;42.524;12.052;2023-03-01T08:51:24;2.10;;;1.30;;
56943;SDS011;42848;42.524;12.052;2023-03-01T08:53:50;3.15;;;1.50;;
56943;SDS011;42848;42.524;12.052;2023-03-01T08:56:16;2.30;;;1.20;;
56943;SDS011;42848;42.524;12.052;2023-03-01T08:58:46;2.33;;;1.63;;
56943;SDS011;42848;42.524;12.052;2023-03-01T09:01:14;2.83;;;1.30;;
56943;SDS011;42848;42.524;12.052;2023-03-01T09:03:41;3.17;;;1.65;;
56943;SDS011;42848;42.524;12.052;2023-03-01T09:06:08;2.55;;;1.40;;
56943;SDS011;42848;42.524;12.052;2023-03-01T09:08:35;2.33;;;1.58;;
56943;SDS011;42848;42.524;12.052;2023-03-01T09:11:02;1.88;;;1.15;;
56943;SDS011;42848;42.524;12.052;2023-03-01T09:13:29;3.38;;;1.70;;
56943;SDS011;42848;42.524;12.052;2023-03-01T09:15:56;2.72;;;1.80;;
56943;SDS011;42848;42.524;12.052;2023-03-01T09:18:23;2.33;;;1.40;;
56943;SDS011;42848;42.524;12.052;2023-03-01T09:20:49;2.83;;;1.70;;
56943;SDS011;42848;42.524;12.052;2023-03-01T09:23:14;2.95;;;1.83;;
56943;SDS011;42848;42.524;12.052;2023-03-01T09:25:40;3.25;;;1.50;;
56943;SDS011;42848;42.524;12.052;2023-03-01T09:28:06;3.47;;;2.25;;
56943;SDS011;42848;42.524;12.052;2023-03-01T09:30:31;26.85;;;16.08;;
56943;SDS011;42848;42.524;12.052;2023-03-01T09:32:57;34.00;;;20.83;;
56943;SDS011;42848;42.524;12.052;2023-03-01T09:35:23;14.77;;;10.77;;
56943;SDS011;42848;42.524;12.052;2023-03-01T09:37:49;2.75;;;1.45;;
56943;SDS011;42848;42.524;12.052;2023-03-01T09:40:16;3.60;;;2.22;;
56943;SDS011;42848;42.524;12.052;2023-03-01T09:43:26;3.38;;;2.20;;
56943;SDS011;42848;42.524;12.052;2023-03-01T09:45:40;3.90;;;2.10;;
56943;SDS011;42848;42.524;12.052;2023-03-01T09:48:12;3.13;;;2.25;;
56943;SDS011;42848;42.524;12.052;2023-03-01T09:50:42;6.45;;;2.42;;
56943;SDS011;42848;42.524;12.052;2023-03-01T09:53:13;4.30;;;2.35;;
56943;SDS011;42848;42.524;12.052;2023-03-01T10:01:27;10.00;;;5.22;;
56943;SDS011;42848;42.524;12.052;2023-03-01T10:06:31;5.95;;;3.03;;
56943;SDS011;42848;42.524;12.052;2023-03-01T10:09:16;5.95;;;2.45;;
56943;SDS011;42848;42.524;12.052;2023-03-01T10:11:45;12.43;;;4.80;;
56943;SDS011;42848;42.524;12.052;2023-03-01T10:17:17;6.30;;;2.35;;
56943;SDS011;42848;42.524;12.052;2023-03-01T10:19:46;2.53;;;1.60;;
56943;SDS011;42848;42.524;12.052;2023-03-01T10:24:54;2.63;;;1.40;;
56943;SDS011;42848;42.524;12.052;2023-03-01T10:27:26;2.63;;;1.80;;
56943;SDS011;42848;42.524;12.052;2023-03-01T10:32:57;2.70;;;1.55;;
56943;SDS011;42848;42.524;12.052;2023-03-01T10:35:34;3.20;;;1.70;;
56943;SDS011;42848;42.524;12.052;2023-03-01T10:38:05;2.28;;;1.40;;
56943;SDS011;42848;42.524;12.052;2023-03-01T10:40:33;2.40;;;1.30;;
56943;SDS011;42848;42.524;12.052;2023-03-01T10:43:02;3.42;;;2.00;;
56943;SDS011;42848;42.524;12.052;2023-03-01T10:50:50;1.98;;;0.80;;
56943;SDS011;42848;42.524;12.052;2023-03-01T10:53:40;3.42;;;1.70;;
56943;SDS011;42848;42.524;12.052;2023-03-01T10:56:09;1.50;;;0.90;;
56943;SDS011;42848;42.524;12.052;2023-03-01T10:58:38;3.00;;;1.70;;
56943;SDS011;42848;42.524;12.052;2023-03-01T11:04:03;2.80;;;1.60;;
56943;SDS011;42848;42.524;12.052;2023-03-01T11:06:38;3.90;;;3.50;;
56943;SDS011;42848;42.524;12.052;2023-03-01T11:09:19;1.75;;;1.15;;
56943;SDS011;42848;42.524;12.052;2023-03-01T11:11:51;4.68;;;4.28;;
56943;SDS011;42848;42.524;12.052;2023-03-01T11:16:47;7.63;;;3.28;;
56943;SDS011;42848;42.524;12.052;2023-03-01T11:19:23;2.60;;;1.23;;
56943;SDS011;42848;42.524;12.052;2023-03-01T11:24:41;9.23;;;7.70;;
56943;SDS011;42848;42.524;12.052;2023-03-01T11:27:19;9.85;;;8.85;;
56943;SDS011;42848;42.524;12.052;2023-03-01T11:30:41;8.70;;;7.72;;
56943;SDS011;42848;42.524;12.052;2023-03-01T11:32:50;7.03;;;5.53;;
56943;SDS011;42848;42.524;12.052;2023-03-01T11:35:47;4.88;;;3.30;;
56943;SDS011;42848;42.524;12.052;2023-03-01T11:38:24;6.30;;;3.30;;
56943;SDS011;42848;42.524;12.052;2023-03-01T11:57:11;4.15;;;2.00;;
56943;SDS011;42848;42.524;12.052;2023-03-01T12:02:59;2.63;;;1.42;;
56943;SDS011;42848;42.524;12.052;2023-03-01T12:08:35;5.10;;;2.50;;
56943;SDS011;42848;42.524;12.052;2023-03-01T12:18:49;6.03;;;2.53;;
56943;SDS011;42848;42.524;12.052;2023-03-01T12:27:22;3.83;;;2.70;;
56943;SDS011;42848;42.524;12.052;2023-03-01T12:35:35;4.50;;;3.25;;
56943;SDS011;42848;42.524;12.052;2023-03-01T12:38:45;9.77;;;5.80;;
56943;SDS011;42848;42.524;12.052;2023-03-01T12:50:03;4.50;;;2.58;;
56943;SDS011;42848;42.524;12.052;2023-03-01T12:55:28;6.22;;;3.70;;
56943;SDS011;42848;42.524;12.052;2023-03-01T13:07:02;6.85;;;2.40;;
56943;SDS011;42848;42.524;12.052;2023-03-01T13:09:59;4.82;;;3.20;;
56943;SDS011;42848;42.524;12.052;2023-03-01T13:17:55;5.97;;;3.00;;
56943;SDS011;42848;42.524;12.052;2023-03-01T13:23:02;6.75;;;2.80;;
56943;SDS011;42848;42.524;12.052;2023-03-01T13:33:46;7.35;;;3.30;;
56943;SDS011;42848;42.524;12.052;2023-03-01T13:38:59;3.63;;;2.28;;
56943;SDS011;42848;42.524;12.052;2023-03-01T13:47:08;7.07;;;3.10;;
56943;SDS011;42848;42.524;12.052;2023-03-01T13:49:50;4.03;;;2.80;;
56943;SDS011;42848;42.524;12.052;2023-03-01T13:58:03;6.40;;;3.10;;
56943;SDS011;42848;42.524;12.052;2023-03-01T14:00:40;4.78;;;3.20;;
56943;SDS011;42848;42.524;12.052;2023-03-01T14:03:40;4.65;;;2.67;;
56943;SDS011;42848;42.524;12.052;2023-03-01T14:08:28;7.38;;;4.95;;
56943;SDS011;42848;42.524;12.052;2023-03-01T14:13:58;5.50;;;3.10;;
56943;SDS011;42848;42.524;12.052;2023-03-01T14:19:28;3.92;;;2.40;;
56943;SDS011;42848;42.524;12.052;2023-03-01T14:24:46;3.88;;;2.35;;
56943;SDS011;42848;42.524;12.052;2023-03-01T14:27:17;3.15;;;2.40;;
56943;SDS011;42848;42.524;12.052;2023-03-01T14:29:45;4.60;;;2.75;;
56943;SDS011;42848;42.524;12.052;2023-03-01T14:32:25;4.95;;;3.00;;
56943;SDS011;42848;42.524;12.052;2023-03-01T14:34:52;15.82;;;8.18;;
56943;SDS011;42848;42.524;12.052;2023-03-01T14:39:49;5.78;;;3.97;;
56943;SDS011;42848;42.524;12.052;2023-03-01T14:42:15;8.48;;;4.07;;
56943;SDS011;42848;42.524;12.052;2023-03-01T14:44:43;5.88;;;4.22;;
56943;SDS011;42848;42.524;12.052;2023-03-01T14:47:14;6.15;;;4.20;;
56943;SDS011;42848;42.524;12.052;2023-03-01T14:49:44;7.50;;;4.97;;
56943;SDS011;42848;42.524;12.052;2023-03-01T14:52:18;9.63;;;6.20;;
56943;SDS011;42848;42.524;12.052;2023-03-01T14:54:48;5.55;;;3.10;;
56943;SDS011;42848;42.524;12.052;2023-03-01T14:57:20;7.53;;;4.10;;
56943;SDS011;42848;42.524;12.052;2023-03-01T14:59:48;10.50;;;7.18;;
56943;SDS011;42848;42.524;12.052;2023-03-01T15:02:19;9.00;;;4.38;;
56943;SDS011;42848;42.524;12.052;2023-03-01T15:04:48;8.00;;;4.30;;
56943;SDS011;42848;42.524;12.052;2023-03-01T15:07:16;7.60;;;4.75;;
56943;SDS011;42848;42.524;12.052;2023-03-01T15:09:43;4.80;;;2.95;;
56943;SDS011;42848;42.524;12.052;2023-03-01T15:14:54;8.67;;;5.20;;
56943;SDS011;42848;42.524;12.052;2023-03-01T15:17:31;5.47;;;3.22;;
56943;SDS011;42848;42.524;12.052;2023-03-01T15:20:00;5.43;;;3.35;;
56943;SDS011;42848;42.524;12.052;2023-03-01T15:22:29;6.95;;;4.22;;
56943;SDS011;42848;42.524;12.052;2023-03-01T15:24:54;6.65;;;3.63;;
56943;SDS011;42848;42.524;12.052;2023-03-01T15:27:21;4.93;;;2.72;;
56943;SDS011;42848;42.524;12.052;2023-03-01T15:29:50;5.10;;;2.70;;
56943;SDS011;42848;42.524;12.052;2023-03-01T15:32:26;6.47;;;3.70;;
56943;SDS011;42848;42.524;12.052;2023-03-01T15:34:58;5.32;;;3.35;;
56943;SDS011;42848;42.524;12.052;2023-03-01T15:37:45;5.35;;;3.70;;
56943;SDS011;42848;42.524;12.052;2023-03-01T15:40:19;7.05;;;3.75;;
56943;SDS011;42848;42.524;12.052;2023-03-01T15:42:56;6.72;;;3.90;;
56943;SDS011;42848;42.524;12.052;2023-03-01T15:45:27;5.35;;;3.28;;
56943;SDS011;42848;42.524;12.052;2023-03-01T15:47:58;13.15;;;7.68;;
56943;SDS011;42848;42.524;12.052;2023-03-01T15:50:42;9.18;;;5.90;;
56943;SDS011;42848;42.524;12.052;2023-03-01T15:53:11;5.15;;;3.67;;
56943;SDS011;42848;42.524;12.052;2023-03-01T15:55:39;7.05;;;4.60;;
56943;SDS011;42848;42.524;12.052;2023-03-01T15:58:08;6.00;;;4.10;;
56943;SDS011;42848;42.524;12.052;2023-03-01T16:00:38;6.55;;;3.72;;
56943;SDS011;42848;42.524;12.052;2023-03-01T16:03:04;6.05;;;3.80;;
56943;SDS011;42848;42.524;12.052;2023-03-01T16:05:31;5.53;;;3.20;;
56943;SDS011;42848;42.524;12.052;2023-03-01T16:08:00;9.50;;;5.60;;
56943;SDS011;42848;42.524;12.052;2023-03-01T16:10:27;5.22;;;3.33;;
56943;SDS011;42848;42.524;12.052;2023-03-01T16:12:52;6.53;;;3.65;;
56943;SDS011;42848;42.524;12.052;2023-03-01T16:15:20;4.00;;;2.50;;
56943;SDS011;42848;42.524;12.052;2023-03-01T16:17:52;4.32;;;2.92;;
56943;SDS011;42848;42.524;12.052;2023-03-01T16:20:18;6.40;;;4.00;;
56943;SDS011;42848;42.524;12.052;2023-03-01T16:22:44;5.57;;;3.70;;
56943;SDS011;42848;42.524;12.052;2023-03-01T16:25:12;8.23;;;5.13;;
56943;SDS011;42848;42.524;12.052;2023-03-01T16:27:44;14.75;;;7.30;;
56943;SDS011;42848;42.524;12.052;2023-03-01T16:30:11;13.85;;;7.80;;
56943;SDS011;42848;42.524;12.052;2023-03-01T16:32:42;10.52;;;6.28;;
56943;SDS011;42848;42.524;12.052;2023-03-01T16:35:09;9.35;;;6.35;;
56943;SDS011;42848;42.524;12.052;2023-03-01T16:37:37;11.43;;;7.88;;
56943;SDS011;42848;42.524;12.052;2023-03-01T16:40:05;8.13;;;5.30;;
56943;SDS011;42848;42.524;12.052;2023-03-01T16:42:41;6.80;;;4.60;;
56943;SDS011;42848;42.524;12.052;2023-03-01T16:45:07;10.18;;;6.60;;
56943;SDS011;42848;42.524;12.052;2023-03-01T16:47:34;9.40;;;6.35;;
56943;SDS011;42848;42.524;12.052;2023-03-01T16:50:00;8.63;;;6.55;;
56943;SDS011;42848;42.524;12.052;2023-03-01T16:52:25;8.07;;;5.15;;
56943;SDS011;42848;42.524;12.052;2023-03-01T16:54:51;7.28;;;5.20;;
56943;SDS011;42848;42.524;12.052;2023-03-01T16:57:17;8.38;;;5.43;;
56943;SDS011;42848;42.524;12.052;2023-03-01T16:59:43;13.45;;;7.85;;
56943;SDS011;42848;42.524;12.052;2023-03-01T17:02:12;8.30;;;5.38;;
56943;SDS011;42848;42.524;12.052;2023-03-01T17:04:39;8.20;;;5.55;;
56943;SDS011;42848;42.524;12.052;2023-03-01T17:07:06;6.28;;;4.15;;
56943;SDS011;42848;42.524;12.052;2023-03-01T17:09:35;8.20;;;5.10;;
56943;SDS011;42848;42.524;12.052;2023-03-01T17:12:02;8.35;;;5.43;;
56943;SDS011;42848;42.524;12.052;2023-03-01T17:14:29;9.48;;;5.65;;
56943;SDS011;42848;42.524;12.052;2023-03-01T17:16:55;10.13;;;6.18;;
56943;SDS011;42848;42.524;12.052;2023-03-01T17:19:20;7.60;;;4.45;;